| time (UTC) | temp F | wind direction | speed knots | gust knots | rain 1hr in | rain 24hr in | rain mn in | humidity % | barometer mb |
| 20260906163617 | 99 | 299 | 3.5 | 4.3 | 0.00 | 0.00 | 0.00 | 44 | 1017.3 |
| 20260906162619 | 99 | 60 | 3.5 | 4.3 | 0.00 | 0.00 | 0.00 | 45 | 1017.4 |
| 20260906161640 | 98 | 287 | 3.5 | 5.2 | 0.00 | 0.00 | 0.00 | 46 | 1017.4 |
| 20260906160619 | 96 | 266 | 3.5 | 4.3 | 0.00 | 0.00 | 0.00 | 48 | 1017.5 |
| 20260906155621 | 96 | 275 | 3.5 | 4.3 | 0.00 | 0.00 | 0.00 | 48 | 1017.5 |
| 20260906154642 | 95 | 264 | 2.6 | 3.5 | 0.00 | 0.00 | 0.00 | 50 | 1017.5 |
| 20260906153618 | 95 | 280 | 3.5 | 4.3 | 0.00 | 0.00 | 0.00 | 51 | 1017.5 |
| 20260906152619 | 94 | 191 | 1.7 | 2.6 | 0.00 | 0.00 | 0.00 | 52 | 1017.5 |
| 20260906151621 | 93 | 250 | 2.6 | 3.5 | 0.00 | 0.00 | 0.00 | 53 | 1017.3 |
| 20260906150622 | 92 | 296 | 1.7 | 2.6 | 0.00 | 0.00 | 0.00 | 56 | 1017.4 |
| 20260906145625 | 90 | 293 | 2.6 | 2.6 | 0.00 | 0.00 | 0.00 | 58 | 1017.4 |
| 20260906144626 | 90 | 278 | 1.7 | 2.6 | 0.00 | 0.00 | 0.00 | 59 | 1017.3 |
| 20260906143627 | 89 | 277 | 1.7 | 2.6 | 0.00 | 0.00 | 0.00 | 61 | 1017.4 |
| 20260906142629 | 88 | 79 | 1.7 | 2.6 | 0.00 | 0.00 | 0.00 | 63 | 1017.4 |
| 20260906141631 | 86 | 241 | 1.7 | 2.6 | 0.00 | 0.00 | 0.00 | 66 | 1017.5 |
| 20260906140627 | 86 | 134 | 1.7 | 2.6 | 0.00 | 0.00 | 0.00 | 66 | 1017.6 |
| 20260906135616 | 88 | 213 | 1.7 | 2.6 | 0.00 | 0.00 | 0.00 | 64 | 1017.6 |
| 20260906134619 | 87 | 222 | 1.7 | 1.7 | 0.00 | 0.00 | 0.00 | 66 | 1017.5 |
| 20260906133659 | 85 | 331 | 1.7 | 2.6 | 0.00 | 0.00 | 0.00 | 69 | 1017.3 |
| 20260906132620 | 83 | 330 | 1.7 | 2.6 | 0.00 | 0.00 | 0.00 | 72 | 1017.3 |
| 20260906131622 | 81 | 0.0 | 0.0 | 0.00 | 0.00 | 0.00 | 76 | 1017.0 | |
| 20260906130624 | 77 | 0.0 | 0.0 | 0.00 | 0.00 | 0.00 | 84 | 1017.0 | |
| 20260906125626 | 74 | 0.0 | 0.0 | 0.00 | 0.00 | 0.00 | 88 | 1017.0 | |
| 20260906124647 | 73 | 0.0 | 0.0 | 0.00 | 0.00 | 0.00 | 91 | 1016.9 | |
| 20260906123644 | 72 | 0.0 | 0.0 | 0.00 | 0.00 | 0.00 | 91 | 1016.8 | |
| 20260906122625 | 71 | 0.0 | 0.0 | 0.00 | 0.00 | 0.00 | 93 | 1016.8 | |
| 20260906121625 | 71 | 0.0 | 0.0 | 0.00 | 0.00 | 0.00 | 92 | 1016.7 | |
| 20260906120627 | 71 | 0.0 | 0.0 | 0.00 | 0.00 | 0.00 | 92 | 1016.4 | |
| 20260906115649 | 71 | 113 | 1.7 | 1.7 | 0.00 | 0.00 | 0.00 | 93 | 1016.3 |
| 20260906114624 | 71 | 338 | 0.9 | 0.9 | 0.00 | 0.00 | 0.00 | 93 | 1016.3 |
| 20260906113620 | 71 | 0.0 | 0.0 | 0.00 | 0.00 | 0.00 | 91 | 1016.3 | |
| 20260906112615 | 71 | 0.0 | 0.0 | 0.00 | 0.00 | 0.00 | 91 | 1016.1 | |
| 20260906111617 | 72 | 315 | 1.7 | 1.7 | 0.00 | 0.00 | 0.00 | 91 | 1016.1 |
| 20260906110639 | 72 | 135 | 0.9 | 1.7 | 0.00 | 0.00 | 0.00 | 90 | 1016.1 |
| 20260906105640 | 72 | 23 | 0.9 | 1.7 | 0.00 | 0.00 | 0.00 | 90 | 1016.0 |
| 20260906104642 | 72 | 0.0 | 0.0 | 0.00 | 0.00 | 0.00 | 90 | 1016.0 | |
| 20260906103624 | 72 | 0.0 | 0.0 | 0.00 | 0.00 | 0.00 | 90 | 1016.0 | |
| 20260906102705 | 72 | 0.0 | 0.0 | 0.00 | 0.00 | 0.00 | 88 | 1015.9 | |
| 20260906101627 | 72 | 0.0 | 0.0 | 0.00 | 0.00 | 0.00 | 89 | 1016.0 | |
| 20260906100623 | 73 | 0.0 | 0.0 | 0.00 | 0.00 | 0.00 | 88 | 1015.9 | |
| 20260906095625 | 73 | 0.0 | 0.0 | 0.00 | 0.00 | 0.00 | 88 | 1015.9 | |
| 20260906094707 | 73 | 128 | 1.7 | 1.7 | 0.00 | 0.00 | 0.00 | 87 | 1015.9 |
| 20260906093628 | 73 | 110 | 0.9 | 2.6 | 0.00 | 0.00 | 0.00 | 87 | 1015.8 |
| 20260906092624 | 73 | 0.0 | 0.0 | 0.00 | 0.00 | 0.00 | 87 | 1015.8 | |
| 20260906091620 | 73 | 0.0 | 0.0 | 0.00 | 0.00 | 0.00 | 87 | 1015.6 | |
| 20260906090632 | 73 | 0.0 | 0.0 | 0.00 | 0.00 | 0.00 | 86 | 1015.6 | |
| 20260906085628 | 74 | 332 | 1.7 | 2.6 | 0.00 | 0.00 | 0.00 | 85 | 1015.6 |
| 20260906084645 | 74 | 270 | 0.9 | 1.7 | 0.00 | 0.00 | 0.00 | 85 | 1015.6 |
| 20260906083626 | 74 | 291 | 1.7 | 1.7 | 0.00 | 0.00 | 0.00 | 84 | 1015.6 |
| 20260906082628 | 74 | 0.0 | 0.0 | 0.00 | 0.00 | 0.00 | 83 | 1015.6 | |
| 20260906081630 | 75 | 270 | 0.9 | 1.7 | 0.00 | 0.00 | 0.00 | 83 | 1015.6 |
| 20260906080631 | 75 | 135 | 0.9 | 1.7 | 0.00 | 0.00 | 0.00 | 81 | 1015.6 |
| 20260906075628 | 75 | 152 | 1.7 | 1.7 | 0.00 | 0.00 | 0.00 | 82 | 1015.6 |
| 20260906074629 | 75 | 144 | 1.7 | 2.6 | 0.00 | 0.00 | 0.00 | 81 | 1015.6 |
| 20260906073631 | 75 | 0.0 | 0.0 | 0.00 | 0.00 | 0.00 | 80 | 1015.8 | |
| 20260906072632 | 76 | 330 | 2.6 | 2.6 | 0.00 | 0.00 | 0.00 | 80 | 1015.6 |
| 20260906071616 | 76 | 270 | 0.9 | 1.7 | 0.00 | 0.00 | 0.00 | 79 | 1015.6 |
| 20260906070617 | 76 | 0.0 | 0.0 | 0.00 | 0.00 | 0.00 | 78 | 1015.8 | |
| 20260906065619 | 77 | 0.0 | 0.0 | 0.00 | 0.00 | 0.00 | 77 | 1015.8 | |
| 20260906064621 | 77 | 248 | 0.9 | 0.9 | 0.00 | 0.00 | 0.00 | 77 | 1015.8 |
| 20260906063622 | 77 | 113 | 1.7 | 2.6 | 0.00 | 0.00 | 0.00 | 76 | 1015.6 |
| 20260906062624 | 77 | 113 | 1.7 | 2.6 | 0.00 | 0.00 | 0.00 | 76 | 1015.9 |
| 20260906061625 | 77 | 293 | 0.9 | 0.9 | 0.00 | 0.00 | 0.00 | 75 | 1015.8 |
| 20260906055649 | 78 | 0.0 | 0.0 | 0.00 | 0.00 | 0.00 | 74 | 1015.6 | |
| 20260906054630 | 78 | 45 | 0.9 | 1.7 | 0.00 | 0.00 | 0.00 | 73 | 1015.6 |
| 20260906053712 | 79 | 158 | 0.0 | 0.9 | 0.00 | 0.00 | 0.00 | 72 | 1015.6 |
| 20260906052633 | 79 | 158 | 1.7 | 1.7 | 0.00 | 0.00 | 0.00 | 72 | 1015.6 |
| 20260906051616 | 80 | 285 | 1.7 | 1.7 | 0.00 | 0.00 | 0.00 | 70 | 1015.4 |
| 20260906050638 | 81 | 270 | 0.0 | 0.9 | 0.00 | 0.00 | 0.00 | 67 | 1015.4 |
| 20260906045619 | 82 | 270 | 1.7 | 2.6 | 0.00 | 0.00 | 0.00 | 65 | 1015.4 |
| 20260906044619 | 83 | 0.0 | 0.0 | 0.00 | 0.00 | 0.00 | 63 | 1015.4 | |
| 20260906043615 | 83 | 115 | 1.7 | 2.6 | 0.00 | 0.00 | 0.00 | 62 | 1015.4 |
| 20260906042623 | 83 | 115 | 1.7 | 2.6 | 0.00 | 0.00 | 0.00 | 61 | 1015.4 |
| 20260906041624 | 83 | 113 | 1.7 | 2.6 | 0.00 | 0.00 | 0.00 | 61 | 1015.4 |
| 20260906040626 | 83 | 70 | 0.9 | 2.6 | 0.00 | 0.00 | 0.00 | 61 | 1015.4 |
| 20260906035627 | 84 | 86 | 0.9 | 1.7 | 0.00 | 0.00 | 0.00 | 61 | 1015.4 |
| 20260906034629 | 84 | 142 | 1.7 | 2.6 | 0.00 | 0.00 | 0.00 | 60 | 1015.4 |
| 20260906033632 | 85 | 113 | 1.7 | 1.7 | 0.00 | 0.00 | 0.00 | 59 | 1015.2 |
| 20260906032652 | 85 | 146 | 2.6 | 3.5 | 0.00 | 0.00 | 0.00 | 59 | 1015.2 |
| 20260906031616 | 85 | 8 | 1.7 | 2.6 | 0.00 | 0.00 | 0.00 | 58 | 1015.1 |
| 20260906030617 | 85 | 2 | 2.6 | 2.6 | 0.00 | 0.00 | 0.00 | 57 | 1014.9 |
| 20260906025639 | 85 | 67 | 0.9 | 2.6 | 0.00 | 0.00 | 0.00 | 57 | 1014.9 |
| 20260906024620 | 86 | 126 | 1.7 | 1.7 | 0.00 | 0.00 | 0.00 | 57 | 1014.9 |
| 20260906023622 | 86 | 16 | 1.7 | 2.6 | 0.00 | 0.00 | 0.00 | 56 | 1014.9 |
| 20260906022617 | 87 | 69 | 1.7 | 2.6 | 0.00 | 0.00 | 0.00 | 55 | 1014.7 |
| 20260906021645 | 87 | 118 | 1.7 | 1.7 | 0.00 | 0.00 | 0.00 | 54 | 1014.4 |
| 20260906020626 | 88 | 156 | 0.9 | 1.7 | 0.00 | 0.00 | 0.00 | 52 | 1014.3 |
| 20260906015628 | 89 | 42 | 3.5 | 4.3 | 0.00 | 0.00 | 0.00 | 51 | 1014.2 |
| 20260906014629 | 90 | 103 | 1.7 | 2.6 | 0.00 | 0.00 | 0.00 | 50 | 1014.1 |
| 20260906013631 | 91 | 160 | 1.7 | 1.7 | 0.00 | 0.00 | 0.00 | 48 | 1014.1 |
| 20260906012632 | 91 | 60 | 1.7 | 2.6 | 0.00 | 0.00 | 0.00 | 47 | 1013.9 |
| 20260906011615 | 92 | 94 | 2.6 | 4.3 | 0.00 | 0.00 | 0.00 | 46 | 1013.8 |
| 20260906010617 | 93 | 85 | 3.5 | 7.0 | 0.00 | 0.00 | 0.00 | 46 | 1013.7 |
| 20260906005618 | 93 | 45 | 1.7 | 1.7 | 0.00 | 0.00 | 0.00 | 47 | 1013.6 |
| 20260906004619 | 94 | 0.0 | 0.0 | 0.00 | 0.00 | 0.00 | 46 | 1013.6 | |
| 20260906003621 | 95 | 83 | 1.7 | 1.7 | 0.00 | 0.00 | 0.00 | 44 | 1013.6 |
| 20260906002623 | 97 | 119 | 0.9 | 1.7 | 0.00 | 0.00 | 0.00 | 41 | 1013.6 |
| 20260906001618 | 99 | 68 | 0.0 | 1.7 | 0.00 | 0.00 | 0.00 | 41 | 1013.6 |
| 20260906000641 | 100 | 113 | 1.7 | 1.7 | 0.00 | 0.00 | 0.00 | 40 | 1013.5 |
| 20260905235622 | 102 | 135 | 0.9 | 1.7 | 0.00 | 0.00 | 0.00 | 38 | 1013.5 |
| 20260905234623 | 105 | 329 | 1.7 | 1.7 | 0.00 | 0.00 | 0.00 | 35 | 1013.5 |
| 20260905233625 | 106 | 295 | 2.6 | 3.5 | 0.00 | 0.00 | 0.00 | 33 | 1013.6 |
| 20260905232627 | 107 | 310 | 2.6 | 2.6 | 0.00 | 0.00 | 0.00 | 32 | 1013.6 |
| 20260905231648 | 108 | 276 | 0.9 | 2.6 | 0.00 | 0.00 | 0.00 | 30 | 1013.5 |
| 20260905230630 | 108 | 309 | 3.5 | 4.3 | 0.00 | 0.00 | 0.00 | 31 | 1013.4 |
| 20260905225631 | 108 | 17 | 2.6 | 3.5 | 0.00 | 0.00 | 0.00 | 31 | 1013.4 |
| 20260905224633 | 106 | 72 | 1.7 | 3.5 | 0.00 | 0.00 | 0.00 | 32 | 1013.4 |
| 20260905223616 | 106 | 297 | 0.9 | 1.7 | 0.00 | 0.00 | 0.00 | 32 | 1013.3 |
| 20260905222638 | 106 | 7 | 2.6 | 3.5 | 0.00 | 0.00 | 0.00 | 33 | 1013.3 |
| 20260905221700 | 104 | 248 | 1.7 | 2.6 | 0.00 | 0.00 | 0.00 | 34 | 1013.5 |
| 20260905220621 | 104 | 343 | 2.6 | 3.5 | 0.00 | 0.00 | 0.00 | 35 | 1013.6 |
| 20260905215617 | 104 | 97 | 1.7 | 2.6 | 0.00 | 0.00 | 0.00 | 35 | 1013.6 |
| 20260905214620 | 105 | 83 | 2.6 | 3.5 | 0.00 | 0.00 | 0.00 | 34 | 1013.7 |
| 20260905213621 | 106 | 264 | 3.5 | 5.2 | 0.00 | 0.00 | 0.00 | 33 | 1013.7 |
| 20260905212627 | 105 | 286 | 2.6 | 2.6 | 0.00 | 0.00 | 0.00 | 34 | 1013.9 |
| 20260905211629 | 105 | 121 | 3.5 | 5.2 | 0.00 | 0.00 | 0.00 | 35 | 1014.1 |
| 20260905210651 | 106 | 47 | 3.5 | 4.3 | 0.00 | 0.00 | 0.00 | 33 | 1014.3 |
| 20260905205632 | 105 | 38 | 4.3 | 5.2 | 0.00 | 0.00 | 0.00 | 35 | 1014.4 |
| 20260905204646 | 105 | 54 | 2.6 | 3.5 | 0.00 | 0.00 | 0.00 | 36 | 1014.5 |
| 20260905203635 | 107 | 103 | 2.6 | 4.3 | 0.00 | 0.00 | 0.00 | 35 | 1014.6 |
| 20260905202617 | 104 | 119 | 2.6 | 3.5 | 0.00 | 0.00 | 0.00 | 37 | 1014.9 |
| 20260905201639 | 104 | 98 | 4.3 | 5.2 | 0.00 | 0.00 | 0.00 | 36 | 1014.9 |
| 20260905200620 | 105 | 118 | 3.5 | 5.2 | 0.00 | 0.00 | 0.00 | 36 | 1015.1 |
| 20260905195622 | 103 | 31 | 2.6 | 4.3 | 0.00 | 0.00 | 0.00 | 38 | 1015.3 |
| 20260905194624 | 105 | 71 | 3.5 | 4.3 | 0.00 | 0.00 | 0.00 | 37 | 1015.4 |
| 20260905193625 | 105 | 144 | 5.2 | 7.0 | 0.00 | 0.00 | 0.00 | 37 | 1015.4 |
| 20260905192626 | 104 | 70 | 5.2 | 7.0 | 0.00 | 0.00 | 0.00 | 38 | 1015.6 |
| 20260905191627 | 105 | 33 | 4.3 | 7.0 | 0.00 | 0.00 | 0.00 | 37 | 1015.8 |
| 20260905190629 | 104 | 13 | 5.2 | 6.1 | 0.00 | 0.00 | 0.00 | 38 | 1016.1 |
| 20260905185630 | 103 | 222 | 2.6 | 4.3 | 0.00 | 0.00 | 0.00 | 38 | 1016.2 |
| 20260905184652 | 103 | 35 | 4.3 | 5.2 | 0.00 | 0.00 | 0.00 | 38 | 1016.3 |
| 20260905183616 | 102 | 341 | 6.1 | 7.0 | 0.00 | 0.00 | 0.00 | 39 | 1016.5 |
| 20260905182617 | 99 | 344 | 4.3 | 5.2 | 0.00 | 0.00 | 0.00 | 42 | 1016.7 |
| 20260905181639 | 101 | 342 | 3.5 | 4.3 | 0.00 | 0.00 | 0.00 | 42 | 1016.8 |
| 20260905180615 | 101 | 285 | 3.5 | 5.2 | 0.00 | 0.00 | 0.00 | 43 | 1016.9 |
| 20260905175622 | 102 | 276 | 4.3 | 5.2 | 0.00 | 0.00 | 0.00 | 41 | 1017.0 |
| 20260905174624 | 98 | 28 | 4.3 | 5.2 | 0.00 | 0.00 | 0.00 | 45 | 1017.2 |
| 20260905173645 | 102 | 59 | 4.3 | 7.0 | 0.00 | 0.00 | 0.00 | 42 | 1017.1 |
| 20260905172627 | 100 | 236 | 4.3 | 5.2 | 0.00 | 0.00 | 0.00 | 44 | 1017.4 |
| 20260905171628 | 99 | 284 | 4.3 | 5.2 | 0.00 | 0.00 | 0.00 | 44 | 1017.6 |
| 20260905170630 | 101 | 307 | 5.2 | 8.7 | 0.00 | 0.00 | 0.00 | 44 | 1017.6 |
| 20260905165651 | 99 | 64 | 1.7 | 2.6 | 0.00 | 0.00 | 0.00 | 45 | 1017.7 |
| 20260905164615 | 99 | 326 | 6.1 | 7.0 | 0.00 | 0.00 | 0.00 | 46 | 1017.8 |